Time;durP1;ratioP1;P1;durP2;ratioP2;P2;SDS_P1;SDS_P2;PMS_P1;PMS_P2;Temp;Humidity;BMP_temperature;BMP_pressure;BME280_temperature;BME280_humidity;BME280_pressure;Samples;Min_cycle;Max_cycle;Signal;HPM_P1;HPM_P2
2022/06/04 00:00:43;;;;;;;8.33;3.43;;;24.30;39.10;;;;;;5054702;28;20550;-40
2022/06/04 00:03:10;;;;;;;3.97;3.43;;;24.20;39.50;;;;;;5054616;28;20412;-40
2022/06/04 00:05:39;;;;;;;4.27;3.67;;;24.20;39.60;;;;;;5053912;28;20772;-40
2022/06/04 00:08:07;;;;;;;4.87;4.23;;;24.20;39.90;;;;;;5054457;28;20408;-39
2022/06/04 00:16:10;;;;;;;5.17;3.87;;;24.00;41.90;;;;;;5054485;28;20447;-40
2022/06/04 00:18:39;;;;;;;4.70;4.30;;;24.00;41.70;;;;;;5054181;28;20416;-40
2022/06/04 00:21:06;;;;;;;4.30;3.70;;;23.90;41.80;;;;;;5054010;28;20508;-40
2022/06/04 00:23:32;;;;;;;5.60;4.00;;;23.90;41.70;;;;;;5054373;28;20417;-40
2022/06/04 00:26:00;;;;;;;5.60;4.30;;;23.90;42.80;;;;;;5054050;28;20408;-40
2022/06/04 00:28:27;;;;;;;5.70;5.10;;;23.80;43.50;;;;;;5054272;28;20430;-39
2022/06/04 00:30:55;;;;;;;4.60;4.20;;;23.80;43.40;;;;;;5053873;28;20463;-39
2022/06/04 00:33:21;;;;;;;5.33;3.97;;;23.70;43.10;;;;;;5054273;28;20412;-38
2022/06/04 00:35:50;;;;;;;9.90;4.60;;;23.70;42.60;;;;;;5035900;28;20423;-39
2022/06/04 00:38:18;;;;;;;3.73;3.00;;;23.70;42.40;;;;;;5053782;28;20400;-38
2022/06/04 00:40:58;;;;;;;4.23;3.73;;;23.70;42.70;;;;;;5053648;28;20477;-39
2022/06/04 00:43:24;;;;;;;4.00;3.60;;;23.70;42.70;;;;;;5053893;28;20950;-40
2022/06/04 00:46:13;;;;;;;3.70;3.40;;;23.70;42.40;;;;;;5053573;28;20487;-39
2022/06/04 00:48:39;;;;;;;3.43;3.13;;;23.60;42.80;;;;;;5053640;28;20177;-40
2022/06/04 00:51:06;;;;;;;4.60;4.20;;;23.60;42.80;;;;;;5053519;28;20462;-40
2022/06/04 00:53:34;;;;;;;4.30;3.73;;;23.60;43.20;;;;;;5053579;28;20248;-40
2022/06/04 00:56:05;;;;;;;4.27;3.87;;;23.50;43.10;;;;;;5053476;28;20419;-40
2022/06/04 00:58:42;;;;;;;5.73;4.43;;;23.50;43.10;;;;;;5053478;28;20423;-38
2022/06/04 01:01:21;;;;;;;4.93;4.40;;;23.50;43.70;;;;;;5053701;28;20432;-39
2022/06/04 01:04:03;;;;;;;4.50;3.80;;;23.40;43.70;;;;;;5053455;28;20876;-39
2022/06/04 01:07:09;;;;;;;4.73;4.17;;;23.40;43.60;;;;;;5053318;28;20470;-40
2022/06/04 01:09:46;;;;;;;4.40;4.00;;;23.40;43.90;;;;;;4991614;28;20418;-38
2022/06/04 01:12:47;;;;;;;4.30;3.90;;;23.40;43.80;;;;;;4991556;28;20597;-39
2022/06/04 01:15:19;;;;;;;4.57;3.90;;;23.30;44.50;;;;;;4972994;28;20489;-39
2022/06/04 01:18:16;;;;;;;5.57;5.07;;;23.20;44.70;;;;;;4990485;28;20485;-40
2022/06/04 01:21:02;;;;;;;4.87;3.93;;;23.10;44.80;;;;;;4991423;28;20422;-39
2022/06/04 01:23:58;;;;;;;5.70;4.40;;;23.00;45.00;;;;;;4991490;28;20395;-38
2022/06/04 01:26:33;;;;;;;6.47;5.87;;;22.90;45.90;;;;;;4991495;28;20410;-38
2022/06/04 01:29:06;;;;;;;6.60;4.87;;;22.90;46.10;;;;;;4991291;28;20409;-40
2022/06/04 01:31:41;;;;;;;7.03;3.90;;;22.90;45.70;;;;;;4991292;28;20994;-39
2022/06/04 01:34:10;;;;;;;5.33;4.90;;;22.90;45.60;;;;;;4991253;28;20422;-40
2022/06/04 01:36:42;;;;;;;5.67;5.17;;;22.90;46.00;;;;;;4991075;28;20954;-38
2022/06/04 01:39:27;;;;;;;6.03;5.40;;;22.80;47.20;;;;;;4991257;28;20456;-39
2022/06/04 01:42:02;;;;;;;4.90;4.37;;;22.80;46.40;;;;;;5052643;28;20466;-38
2022/06/04 01:44:34;;;;;;;5.90;4.97;;;22.80;47.10;;;;;;5052825;28;20414;-40
2022/06/04 01:47:05;;;;;;;5.87;4.80;;;22.80;47.10;;;;;;5052551;28;20412;-38
2022/06/04 01:49:41;;;;;;;5.17;4.67;;;22.80;46.80;;;;;;5052653;28;20748;-40
2022/06/04 01:52:14;;;;;;;4.70;3.80;;;22.80;46.50;;;;;;5052693;28;20458;-40
2022/06/04 01:55:00;;;;;;;4.47;4.07;;;22.80;46.70;;;;;;5052284;28;20404;-39
2022/06/04 01:57:38;;;;;;;4.43;4.03;;;22.80;46.60;;;;;;5051875;28;20412;-41
2022/06/04 02:00:25;;;;;;;5.93;3.83;;;22.70;46.50;;;;;;5052532;28;20407;-40
2022/06/04 02:02:54;;;;;;;4.80;4.40;;;22.80;46.60;;;;;;5052412;28;20412;-41
2022/06/04 02:05:26;;;;;;;5.83;4.30;;;22.80;47.40;;;;;;5052099;28;20919;-41
2022/06/04 02:07:54;;;;;;;5.90;4.50;;;22.70;47.50;;;;;;5052156;28;20415;-41
2022/06/04 02:10:20;;;;;;;4.90;4.40;;;22.80;47.70;;;;;;5052300;28;20458;-39
2022/06/04 02:12:50;;;;;;;5.60;5.10;;;22.70;47.90;;;;;;5052154;28;20989;-38
2022/06/04 02:15:21;;;;;;;4.93;4.20;;;22.70;47.60;;;;;;5051997;28;20435;-38
2022/06/04 02:17:51;;;;;;;6.13;5.27;;;22.70;47.60;;;;;;5052037;28;20887;-39
2022/06/04 02:20:17;;;;;;;5.40;4.60;;;22.70;47.70;;;;;;5052074;28;20422;-39
2022/06/04 02:22:43;;;;;;;5.00;4.60;;;22.70;47.70;;;;;;5052104;28;20432;-41
2022/06/04 02:25:12;;;;;;;4.87;4.47;;;22.80;47.20;;;;;;5051932;28;20430;-41
2022/06/04 02:27:38;;;;;;;4.70;4.20;;;22.80;47.40;;;;;;5051609;28;20407;-41
2022/06/04 02:30:06;;;;;;;5.00;4.50;;;22.80;47.60;;;;;;5051895;28;20514;-40
2022/06/04 02:32:47;;;;;;;4.93;4.33;;;22.80;47.30;;;;;;5051924;28;20431;-38
2022/06/04 02:35:32;;;;;;;5.40;4.90;;;22.70;47.70;;;;;;5051721;28;20451;-39
2022/06/04 02:38:17;;;;;;;5.67;5.07;;;22.70;48.10;;;;;;5052184;28;20419;-39
2022/06/04 02:41:10;;;;;;;5.00;4.50;;;22.70;48.10;;;;;;5051601;28;20901;-39
2022/06/04 02:44:08;;;;;;;6.20;5.60;;;22.70;48.10;;;;;;5034140;28;20400;-39
2022/06/04 02:47:01;;;;;;;6.07;5.40;;;22.60;48.10;;;;;;5051651;28;20454;-40
2022/06/04 02:49:36;;;;;;;5.27;4.73;;;22.60;48.20;;;;;;5051996;28;20411;-41
2022/06/04 02:52:03;;;;;;;5.30;4.80;;;22.60;48.20;;;;;;5051628;28;20463;-39
2022/06/04 02:54:37;;;;;;;5.67;5.17;;;22.60;48.10;;;;;;5051687;28;20399;-40
2022/06/04 02:57:05;;;;;;;6.57;5.73;;;22.60;48.10;;;;;;5051626;28;20400;-39
2022/06/04 02:59:34;;;;;;;5.83;5.23;;;22.50;48.40;;;;;;5051694;28;20457;-39
2022/06/04 03:02:02;;;;;;;5.10;4.60;;;22.50;48.30;;;;;;5051991;28;20440;-39
2022/06/04 03:04:39;;;;;;;6.07;5.47;;;22.50;48.10;;;;;;5051531;28;20444;-38
2022/06/04 03:07:06;;;;;;;4.80;4.40;;;22.50;48.30;;;;;;5051677;28;20545;-39
2022/06/04 03:09:32;;;;;;;6.00;5.03;;;22.40;49.30;;;;;;5051606;28;20408;-39
2022/06/04 03:11:58;;;;;;;8.13;5.50;;;22.40;49.00;;;;;;5051436;28;20769;-40
2022/06/04 03:14:24;;;;;;;6.13;5.60;;;22.30;49.30;;;;;;5051554;28;20415;-39
2022/06/04 03:16:51;;;;;;;6.63;5.20;;;22.30;49.40;;;;;;5051646;28;20489;-38
2022/06/04 03:19:17;;;;;;;6.40;5.63;;;22.30;49.20;;;;;;5051697;28;20412;-40
2022/06/04 03:21:43;;;;;;;9.23;6.07;;;22.40;49.20;;;;;;5051522;28;20427;-41
2022/06/04 03:24:11;;;;;;;5.43;4.60;;;22.40;49.20;;;;;;5051292;28;20974;-41
2022/06/04 03:26:37;;;;;;;7.40;5.67;;;22.50;49.00;;;;;;5051395;28;20414;-40
2022/06/04 03:29:03;;;;;;;7.00;6.30;;;22.40;49.00;;;;;;5051413;28;20403;-40
2022/06/04 03:31:30;;;;;;;7.27;5.90;;;22.50;49.50;;;;;;5051297;28;20516;-39
2022/06/04 03:33:56;;;;;;;6.00;5.40;;;22.40;49.60;;;;;;5051365;28;20415;-38
2022/06/04 03:36:25;;;;;;;6.00;5.00;;;22.10;49.00;;;;;;5051328;28;20408;-38
2022/06/04 03:38:54;;;;;;;5.90;5.40;;;22.40;49.10;;;;;;5051176;28;20418;-39
2022/06/04 03:41:20;;;;;;;5.53;5.00;;;22.50;49.20;;;;;;5054464;28;20467;-41
2022/06/04 03:43:48;;;;;;;6.03;5.43;;;22.50;49.30;;;;;;5054879;28;20419;-40
2022/06/04 03:46:14;;;;;;;6.23;5.63;;;22.50;49.30;;;;;;5054761;28;20408;-41
2022/06/04 03:48:40;;;;;;;7.87;7.07;;;22.50;49.70;;;;;;5054785;28;20416;-41
2022/06/04 03:51:06;;;;;;;6.37;5.47;;;22.40;50.40;;;;;;5054798;28;20454;-40
2022/06/04 03:53:31;;;;;;;6.63;6.03;;;22.40;49.80;;;;;;5054737;28;20764;-40
2022/06/04 03:55:57;;;;;;;6.63;5.83;;;22.40;50.00;;;;;;5054799;28;20223;-40
2022/06/04 03:58:29;;;;;;;6.00;5.23;;;22.40;49.50;;;;;;5054806;28;20196;-40
2022/06/04 04:00:56;;;;;;;6.03;5.37;;;22.40;49.40;;;;;;5054740;28;20189;-40
2022/06/04 04:03:22;;;;;;;7.13;6.40;;;22.40;49.60;;;;;;5054650;28;20461;-41
2022/06/04 04:05:51;;;;;;;6.90;6.07;;;22.40;49.70;;;;;;5054428;28;20415;-41
2022/06/04 04:08:18;;;;;;;6.90;6.20;;;23.10;50.20;;;;;;5054384;28;20419;-41
2022/06/04 04:10:45;;;;;;;7.17;6.43;;;22.40;50.20;;;;;;5054606;28;20490;-40
2022/06/04 04:13:11;;;;;;;6.93;6.33;;;22.40;49.90;;;;;;5054419;28;20500;-41
2022/06/04 04:15:38;;;;;;;6.37;5.77;;;22.40;50.50;;;;;;5054279;28;20396;-40
2022/06/04 04:18:05;;;;;;;8.00;7.20;;;22.50;49.90;;;;;;5054686;28;20419;-41
2022/06/04 04:20:35;;;;;;;8.43;6.57;;;22.50;49.70;;;;;;5054132;28;20775;-40
2022/06/04 04:23:02;;;;;;;7.37;6.50;;;22.50;50.10;;;;;;5054631;28;20411;-41
2022/06/04 04:25:30;;;;;;;6.70;6.00;;;22.50;50.40;;;;;;5054347;28;20777;-40
2022/06/04 04:27:56;;;;;;;7.00;6.13;;;22.50;50.40;;;;;;5054134;28;20412;-40
2022/06/04 04:30:26;;;;;;;7.20;5.87;;;22.50;50.20;;;;;;5036176;28;20451;-40
2022/06/04 04:32:53;;;;;;;6.17;5.57;;;22.50;50.20;;;;;;5053915;28;20549;-40
2022/06/04 04:35:21;;;;;;;14.30;6.10;;;22.50;50.60;;;;;;5054149;28;20872;-41
2022/06/04 04:37:48;;;;;;;7.90;6.70;;;22.40;50.60;;;;;;5053939;28;20419;-40
2022/06/04 04:40:16;;;;;;;8.23;7.17;;;22.40;50.60;;;;;;5053893;28;20400;-40
2022/06/04 04:42:43;;;;;;;6.43;5.83;;;22.40;50.60;;;;;;5036114;28;20448;-40
2022/06/04 04:45:10;;;;;;;7.93;7.13;;;22.40;50.70;;;;;;5053689;28;20412;-41
2022/06/04 04:47:38;;;;;;;6.80;6.10;;;22.50;50.70;;;;;;5053547;28;20465;-40
2022/06/04 04:50:06;;;;;;;7.17;5.90;;;22.40;50.60;;;;;;5053683;28;20403;-40
2022/06/04 04:52:32;;;;;;;7.50;6.80;;;22.50;50.60;;;;;;5053344;28;20450;-41
2022/06/04 04:54:58;;;;;;;6.67;5.87;;;22.50;50.70;;;;;;5053524;28;20407;-40
2022/06/04 04:57:24;;;;;;;7.03;6.30;;;22.60;50.60;;;;;;5053549;28;20462;-40
2022/06/04 04:59:50;;;;;;;7.83;7.00;;;22.60;50.60;;;;;;5053787;28;20435;-41
2022/06/04 05:02:16;;;;;;;6.80;6.13;;;22.60;50.80;;;;;;5053314;28;20193;-41
2022/06/04 05:04:42;;;;;;;7.43;6.37;;;22.60;50.60;;;;;;5053239;28;20415;-41
2022/06/04 05:07:09;;;;;;;8.03;7.23;;;22.70;50.80;;;;;;5053569;28;20416;-40
2022/06/04 05:09:37;;;;;;;7.63;6.93;;;22.70;51.20;;;;;;5053283;28;20185;-40
2022/06/04 05:12:03;;;;;;;7.93;7.20;;;22.70;50.80;;;;;;5053125;28;21096;-40
2022/06/04 05:14:30;;;;;;;8.93;7.33;;;22.70;50.70;;;;;;5053079;28;20412;-40
2022/06/04 05:16:55;;;;;;;7.57;6.80;;;22.70;50.60;;;;;;5053020;28;20481;-40
2022/06/04 05:19:21;;;;;;;8.33;7.53;;;22.70;50.70;;;;;;5053450;28;20463;-40
2022/06/04 05:21:50;;;;;;;9.03;7.37;;;22.70;51.00;;;;;;5035109;28;20681;-40
2022/06/04 05:24:23;;;;;;;8.23;7.43;;;22.70;50.90;;;;;;5035040;28;20185;-40
2022/06/04 05:26:50;;;;;;;8.23;7.30;;;22.70;51.00;;;;;;5053020;28;20473;-40
2022/06/04 05:29:16;;;;;;;10.70;9.17;;;22.70;51.00;;;;;;5052893;28;20822;-40
2022/06/04 05:31:43;;;;;;;8.93;8.03;;;22.70;51.10;;;;;;5052668;28;20983;-40
2022/06/04 05:34:10;;;;;;;10.13;9.23;;;22.80;51.20;;;;;;5052968;28;20411;-41
2022/06/04 05:36:36;;;;;;;11.00;9.20;;;22.80;51.30;;;;;;5052759;28;20408;-41
2022/06/04 05:39:03;;;;;;;8.87;7.97;;;22.80;51.30;;;;;;5052934;28;20443;-40
2022/06/04 05:41:29;;;;;;;9.23;7.90;;;22.90;51.30;;;;;;5052555;28;20542;-40
2022/06/04 05:43:55;;;;;;;9.17;7.30;;;22.90;51.50;;;;;;5052839;28;20804;-40
2022/06/04 05:46:22;;;;;;;8.53;7.73;;;22.90;51.30;;;;;;5052560;28;20415;-40
2022/06/04 05:48:48;;;;;;;7.63;6.83;;;22.90;51.40;;;;;;5052522;28;20434;-40
2022/06/04 05:51:18;;;;;;;8.07;7.27;;;22.90;51.70;;;;;;5052527;28;20859;-40
2022/06/04 05:53:44;;;;;;;8.67;7.60;;;22.90;51.70;;;;;;5052518;28;20408;-40
2022/06/04 05:56:16;;;;;;;9.73;8.37;;;23.00;51.50;;;;;;5052291;28;20408;-40
2022/06/04 05:58:41;;;;;;;7.93;7.17;;;23.00;51.50;;;;;;5052527;28;20430;-40
2022/06/04 06:01:08;;;;;;;8.80;7.90;;;23.00;51.60;;;;;;5052367;28;21118;-40
2022/06/04 06:03:34;;;;;;;10.50;8.63;;;23.00;51.40;;;;;;5051786;28;20169;-40
2022/06/04 06:06:01;;;;;;;10.33;9.27;;;23.00;51.60;;;;;;5052259;28;20489;-40
2022/06/04 06:08:27;;;;;;;11.73;8.83;;;23.00;51.50;;;;;;5052425;28;20902;-40
2022/06/04 06:10:53;;;;;;;9.47;8.00;;;23.00;51.20;;;;;;5051973;28;21033;-41
2022/06/04 06:13:19;;;;;;;9.73;8.00;;;23.00;51.00;;;;;;5052224;28;20530;-40
2022/06/04 06:15:44;;;;;;;8.50;7.43;;;23.00;50.90;;;;;;5051963;28;20180;-40
2022/06/04 06:18:10;;;;;;;8.90;7.63;;;23.00;51.20;;;;;;5052171;28;20169;-40
2022/06/04 06:20:41;;;;;;;9.07;7.80;;;23.00;51.30;;;;;;5052122;28;20181;-40
2022/06/04 06:23:07;;;;;;;8.43;7.37;;;23.00;51.20;;;;;;5052177;28;20407;-40
2022/06/04 06:25:32;;;;;;;7.47;6.60;;;23.00;51.20;;;;;;5051781;28;20435;-41
2022/06/04 06:27:58;;;;;;;8.33;7.53;;;23.10;51.30;;;;;;5052296;28;20768;-40
2022/06/04 06:30:24;;;;;;;8.67;7.77;;;23.10;51.30;;;;;;5052019;28;20619;-40
2022/06/04 06:32:50;;;;;;;10.20;9.10;;;23.20;51.30;;;;;;5051892;28;20203;-41
2022/06/04 06:35:16;;;;;;;7.70;6.90;;;23.20;51.40;;;;;;5051888;28;20412;-40
2022/06/04 06:37:41;;;;;;;8.47;6.50;;;23.20;51.50;;;;;;5052028;28;20165;-40
2022/06/04 06:40:08;;;;;;;8.90;6.60;;;23.20;51.30;;;;;;5052109;28;20189;-40
2022/06/04 06:42:33;;;;;;;7.67;6.83;;;23.20;51.40;;;;;;5051905;28;20197;-41
2022/06/04 06:44:59;;;;;;;9.20;8.30;;;23.30;51.30;;;;;;5052000;28;20408;-40
2022/06/04 06:47:25;;;;;;;7.67;6.97;;;23.30;51.30;;;;;;5052326;28;20533;-40
2022/06/04 06:49:51;;;;;;;6.97;6.23;;;23.30;51.20;;;;;;5052184;28;20200;-41
2022/06/04 06:52:19;;;;;;;7.50;6.73;;;23.30;51.20;;;;;;5051824;28;20251;-40
2022/06/04 06:54:46;;;;;;;8.30;7.23;;;23.30;51.20;;;;;;5051562;28;20714;-40
2022/06/04 06:57:16;;;;;;;7.33;6.53;;;23.30;51.30;;;;;;5051738;28;20404;-40
2022/06/04 06:59:43;;;;;;;11.10;8.10;;;23.30;51.30;;;;;;5051855;28;20400;-40
2022/06/04 07:02:10;;;;;;;7.37;6.57;;;23.30;51.20;;;;;;5051799;28;20431;-40
2022/06/04 07:04:35;;;;;;;7.80;7.00;;;23.30;51.10;;;;;;5051816;28;20419;-41
2022/06/04 07:07:03;;;;;;;7.50;6.10;;;23.30;51.10;;;;;;5051596;28;20418;-40
2022/06/04 07:09:33;;;;;;;7.07;6.37;;;23.30;51.10;;;;;;5051639;28;20533;-41
2022/06/04 07:12:00;;;;;;;9.33;7.07;;;23.40;51.10;;;;;;5051588;28;20537;-40
2022/06/04 07:14:26;;;;;;;7.97;7.17;;;23.40;51.10;;;;;;5051609;28;20407;-41
2022/06/04 07:16:54;;;;;;;8.60;6.60;;;23.40;51.00;;;;;;5055690;28;20907;-40
2022/06/04 07:19:22;;;;;;;9.43;5.97;;;23.40;50.90;;;;;;5055562;28;20963;-40
2022/06/04 07:21:48;;;;;;;7.17;6.43;;;23.40;50.80;;;;;;5055246;28;20484;-40
2022/06/04 07:24:14;;;;;;;6.27;5.63;;;23.40;50.80;;;;;;5055228;28;20412;-40
2022/06/04 07:26:41;;;;;;;7.30;6.60;;;23.50;50.90;;;;;;5037398;28;20430;-40
2022/06/04 07:29:08;;;;;;;6.77;6.07;;;23.50;50.80;;;;;;5055194;28;20411;-40
2022/06/04 07:31:34;;;;;;;7.13;6.43;;;23.60;50.60;;;;;;5055123;28;20470;-40
2022/06/04 07:34:00;;;;;;;5.93;5.33;;;23.60;50.40;;;;;;5057167;28;20764;-40
2022/06/04 07:36:29;;;;;;;9.20;6.37;;;23.60;50.40;;;;;;5055596;28;20892;-40
2022/06/04 07:38:55;;;;;;;7.57;6.10;;;23.60;50.40;;;;;;5055446;28;20403;-41
2022/06/04 07:41:31;;;;;;;8.07;6.30;;;23.60;50.40;;;;;;5054793;28;20454;-41
2022/06/04 07:43:57;;;;;;;6.10;5.50;;;23.60;50.50;;;;;;5054780;28;20814;-40
2022/06/04 07:46:25;;;;;;;6.80;6.10;;;23.60;50.50;;;;;;5054839;28;20423;-40
2022/06/04 07:48:53;;;;;;;6.10;5.50;;;23.60;50.50;;;;;;5054639;28;20408;-40
2022/06/04 07:51:19;;;;;;;8.13;6.73;;;23.60;50.40;;;;;;5054881;28;20696;-40
2022/06/04 07:53:45;;;;;;;7.13;6.43;;;23.70;50.50;;;;;;5054660;28;20404;-40
2022/06/04 07:56:16;;;;;;;6.90;6.20;;;23.70;50.20;;;;;;5054537;28;20173;-41
2022/06/04 07:58:43;;;;;;;6.47;5.87;;;23.70;50.00;;;;;;5054553;28;20388;-40
2022/06/04 08:01:11;;;;;;;7.13;6.43;;;23.60;49.70;;;;;;5054641;28;20917;-40
2022/06/04 08:03:37;;;;;;;7.10;6.40;;;23.60;49.90;;;;;;5054808;28;20415;-40
2022/06/04 08:06:05;;;;;;;7.83;6.80;;;23.60;50.00;;;;;;5054431;28;20903;-41
2022/06/04 08:08:32;;;;;;;6.70;5.93;;;23.60;50.00;;;;;;5054553;28;20415;-40
2022/06/04 08:10:59;;;;;;;7.83;6.27;;;23.60;50.00;;;;;;5054368;28;20471;-40
2022/06/04 08:13:26;;;;;;;9.00;6.27;;;23.60;49.90;;;;;;5054336;28;20465;-41
2022/06/04 08:15:59;;;;;;;7.17;6.47;;;23.70;50.00;;;;;;5054265;28;20411;-41
2022/06/04 08:18:25;;;;;;;5.97;5.47;;;23.70;50.00;;;;;;5054263;28;20411;-40
2022/06/04 08:20:53;;;;;;;5.80;5.17;;;23.70;49.90;;;;;;5054262;28;20427;-41
2022/06/04 08:23:19;;;;;;;6.43;5.83;;;23.70;49.90;;;;;;5054301;28;20438;-41
2022/06/04 08:25:49;;;;;;;6.53;5.97;;;23.70;49.80;;;;;;5053495;28;20411;-40
2022/06/04 08:28:15;;;;;;;5.80;5.03;;;23.70;49.70;;;;;;5054267;28;20499;-41
2022/06/04 08:30:42;;;;;;;6.93;6.23;;;23.80;49.60;;;;;;5053998;28;20451;-41
2022/06/04 08:33:09;;;;;;;5.83;5.20;;;23.80;49.60;;;;;;5054121;28;20411;-40
2022/06/04 08:35:35;;;;;;;9.97;6.70;;;23.80;49.70;;;;;;5053926;28;20408;-41
2022/06/04 08:38:01;;;;;;;6.77;6.07;;;23.90;49.80;;;;;;5053942;28;20499;-41
2022/06/04 08:40:42;;;;;;;5.80;4.60;;;23.90;49.80;;;;;;5053950;28;21042;-41
2022/06/04 08:43:24;;;;;;;7.87;6.93;;;23.90;49.70;;;;;;5053824;28;20415;-40
2022/06/04 08:45:50;;;;;;;7.90;6.63;;;24.00;49.60;;;;;;5053864;28;20479;-41
2022/06/04 08:48:22;;;;;;;7.13;6.43;;;24.00;49.50;;;;;;5053844;28;20432;-40
2022/06/04 08:50:49;;;;;;;8.07;7.27;;;24.10;49.70;;;;;;5053622;28;21037;-41
2022/06/04 08:53:25;;;;;;;6.90;5.77;;;24.10;49.40;;;;;;5053640;28;20419;-41
2022/06/04 08:59:13;;;;;;;7.90;7.10;;;24.20;49.40;;;;;;5053810;28;20936;-41
2022/06/04 09:01:52;;;;;;;7.57;6.87;;;24.30;49.50;;;;;;5035549;28;20427;-40
2022/06/04 09:04:33;;;;;;;8.63;7.60;;;24.40;49.40;;;;;;5053306;28;20388;-40
2022/06/04 09:07:13;;;;;;;8.53;7.63;;;24.50;49.20;;;;;;5053374;28;20392;-41
2022/06/04 09:10:00;;;;;;;8.53;7.50;;;24.50;49.10;;;;;;5053373;28;20419;-41
2022/06/04 09:12:29;;;;;;;7.57;6.87;;;24.60;49.20;;;;;;5053052;28;20491;-41
2022/06/04 09:15:00;;;;;;;7.73;7.03;;;24.70;49.10;;;;;;5053300;28;20414;-41
2022/06/04 09:17:41;;;;;;;14.27;9.27;;;24.80;48.80;;;;;;5053184;28;20914;-41
2022/06/04 09:20:21;;;;;;;13.03;7.07;;;24.80;48.60;;;;;;5053183;28;20407;-40
2022/06/04 09:22:51;;;;;;;8.93;7.90;;;24.90;48.80;;;;;;5053118;28;20918;-41
2022/06/04 09:25:22;;;;;;;8.00;7.23;;;24.90;48.60;;;;;;5052870;28;20408;-41
2022/06/04 09:28:09;;;;;;;8.90;8.10;;;25.00;48.50;;;;;;5052902;28;20953;-40
2022/06/04 09:30:40;;;;;;;8.70;7.90;;;25.10;48.60;;;;;;5052777;28;20491;-41
2022/06/04 09:33:17;;;;;;;8.17;7.37;;;25.10;48.30;;;;;;5052782;28;20420;-41
2022/06/04 09:35:44;;;;;;;8.70;6.80;;;25.10;48.30;;;;;;5052652;28;20457;-40
2022/06/04 09:38:31;;;;;;;8.90;7.63;;;25.20;48.30;;;;;;5051925;28;20461;-41
2022/06/04 09:41:03;;;;;;;7.63;6.77;;;25.20;47.70;;;;;;5052735;28;20447;-41
2022/06/04 09:43:30;;;;;;;8.00;7.20;;;25.20;47.30;;;;;;5052643;28;20411;-40
2022/06/04 09:46:06;;;;;;;7.47;6.50;;;25.30;48.50;;;;;;5052432;28;20764;-41
2022/06/04 09:48:35;;;;;;;6.93;6.23;;;25.30;47.70;;;;;;5052702;28;20428;-41
2022/06/04 09:51:06;;;;;;;6.63;5.63;;;25.40;47.60;;;;;;5052461;28;20483;-41
2022/06/04 09:53:43;;;;;;;5.87;5.23;;;25.60;47.60;;;;;;5052639;28;20412;-40
2022/06/04 09:56:16;;;;;;;7.20;6.17;;;25.80;47.60;;;;;;5052317;28;20876;-41
2022/06/04 09:58:46;;;;;;;7.13;6.30;;;26.00;48.30;;;;;;5052339;28;20403;-40
2022/06/04 10:01:14;;;;;;;7.43;6.73;;;26.10;47.10;;;;;;5052499;28;20423;-41
2022/06/04 10:03:42;;;;;;;5.57;5.07;;;26.20;46.50;;;;;;5052534;28;20778;-41
2022/06/04 10:06:23;;;;;;;6.23;5.63;;;26.30;46.90;;;;;;5052161;28;20444;-41
2022/06/04 10:12:05;;;;;;;6.90;5.77;;;26.60;45.80;;;;;;5052602;28;20470;-41
2022/06/04 10:14:39;;;;;;;7.70;5.57;;;26.60;45.70;;;;;;5052122;28;20396;-41
2022/06/04 10:17:18;;;;;;;6.40;5.00;;;26.70;44.80;;;;;;5052247;28;20395;-40
2022/06/04 10:19:55;;;;;;;5.57;5.07;;;26.80;44.40;;;;;;5052160;28;20416;-41
2022/06/04 10:22:21;;;;;;;5.30;4.03;;;26.80;44.10;;;;;;5052033;28;20435;-41
2022/06/04 10:24:53;;;;;;;4.97;4.57;;;26.90;44.30;;;;;;5051861;28;20415;-41
2022/06/04 10:27:44;;;;;;;5.80;5.30;;;27.00;44.50;;;;;;5051977;28;20415;-41
2022/06/04 10:30:12;;;;;;;6.67;4.93;;;27.10;43.50;;;;;;5052009;28;20449;-41
2022/06/04 10:33:26;;;;;;;6.33;4.63;;;27.10;43.70;;;;;;5052009;28;20455;-41
2022/06/04 10:35:56;;;;;;;6.17;5.43;;;27.20;43.10;;;;;;5024961;28;20439;-41
2022/06/04 10:38:31;;;;;;;7.43;6.73;;;27.20;43.00;;;;;;5052051;28;20441;-41
2022/06/04 10:41:10;;;;;;;7.90;7.10;;;27.20;43.40;;;;;;5052174;28;20454;-39
2022/06/04 10:44:00;;;;;;;7.50;6.83;;;27.20;42.40;;;;;;5052899;28;20494;-39
2022/06/04 10:46:31;;;;;;;7.60;6.90;;;27.30;42.60;;;;;;5053180;28;20752;-39
2022/06/04 10:49:03;;;;;;;7.73;7.03;;;27.40;42.10;;;;;;5053570;28;20396;-39
2022/06/04 10:51:38;;;;;;;7.80;7.10;;;27.40;41.50;;;;;;5056930;28;20614;-39
2022/06/04 10:54:09;;;;;;;7.90;7.07;;;27.50;41.80;;;;;;5056491;28;20407;-39
2022/06/04 10:56:43;;;;;;;8.87;7.43;;;27.60;41.60;;;;;;5056874;28;20394;-39
2022/06/04 10:59:22;;;;;;;7.87;7.10;;;27.60;41.50;;;;;;5057082;28;20391;-39
2022/06/04 11:02:02;;;;;;;7.57;6.87;;;27.50;41.10;;;;;;5057054;28;20423;-39
2022/06/04 11:04:34;;;;;;;7.37;6.60;;;27.40;40.90;;;;;;5056904;28;20407;-39
2022/06/04 11:07:30;;;;;;;9.30;8.40;;;27.20;41.60;;;;;;5057023;28;20393;-39
2022/06/04 11:09:58;;;;;;;8.63;7.83;;;27.20;41.30;;;;;;5057099;28;20919;-39
2022/06/04 11:12:39;;;;;;;9.43;8.47;;;27.10;41.40;;;;;;5057523;28;20467;-39
2022/06/04 11:15:15;;;;;;;9.23;8.40;;;26.90;40.80;;;;;;5057035;28;20392;-39
2022/06/04 11:17:44;;;;;;;8.63;7.83;;;26.90;41.10;;;;;;5040378;28;20399;-39
2022/06/04 11:20:12;;;;;;;8.87;7.97;;;26.80;41.60;;;;;;5056943;28;20422;-39
2022/06/04 11:22:52;;;;;;;8.43;7.60;;;26.70;41.70;;;;;;5057057;28;20424;-39
2022/06/04 11:25:28;;;;;;;10.43;8.93;;;26.80;41.80;;;;;;5057022;28;20918;-39
2022/06/04 11:28:03;;;;;;;9.50;8.70;;;26.70;41.80;;;;;;5056987;28;20403;-39
2022/06/04 11:30:35;;;;;;;9.40;8.60;;;26.70;42.10;;;;;;5056675;28;20414;-39
2022/06/04 11:33:41;;;;;;;13.10;9.30;;;26.70;42.00;;;;;;5056629;28;20396;-39
2022/06/04 11:36:39;;;;;;;10.23;7.57;;;26.80;41.70;;;;;;5038636;28;20511;-41
2022/06/04 11:39:24;;;;;;;11.57;10.47;;;26.80;41.70;;;;;;5030152;28;20482;-41
2022/06/04 11:41:56;;;;;;;12.77;10.73;;;26.90;41.30;;;;;;5055138;28;21013;-40
2022/06/04 11:44:43;;;;;;;10.37;9.47;;;26.80;41.30;;;;;;5055154;28;20411;-40
2022/06/04 11:47:25;;;;;;;11.63;10.53;;;26.80;41.10;;;;;;5054880;28;20427;-41
2022/06/04 11:50:11;;;;;;;11.83;10.63;;;26.70;40.80;;;;;;5055010;28;20423;-40
2022/06/04 11:52:50;;;;;;;11.50;10.50;;;26.70;40.70;;;;;;5054716;28;20800;-41
2022/06/04 11:55:52;;;;;;;11.67;9.70;;;26.60;41.00;;;;;;5054699;28;20579;-40
2022/06/04 11:58:55;;;;;;;11.40;10.00;;;26.60;40.60;;;;;;5054775;28;20442;-41
2022/06/04 12:01:37;;;;;;;9.10;8.20;;;26.50;40.30;;;;;;5053632;28;20423;-41
2022/06/04 12:04:40;;;;;;;10.17;9.20;;;26.50;40.50;;;;;;5055095;28;20396;-41
2022/06/04 12:07:13;;;;;;;9.47;8.60;;;26.50;40.30;;;;;;5054775;28;20403;-41
2022/06/04 12:09:59;;;;;;;8.63;7.77;;;26.50;40.60;;;;;;5055093;28;20399;-41
2022/06/04 12:12:43;;;;;;;8.10;7.30;;;26.60;40.20;;;;;;5054526;28;20455;-40
2022/06/04 12:15:26;;;;;;;7.37;6.67;;;26.60;40.00;;;;;;5054310;28;21047;-41
2022/06/04 12:17:59;;;;;;;9.93;7.20;;;26.60;39.80;;;;;;5054758;28;20748;-40
2022/06/04 12:26:26;;;;;;;9.90;9.00;;;26.70;39.90;;;;;;5054450;28;20453;-40
2022/06/04 12:28:53;;;;;;;8.93;8.13;;;26.70;39.00;;;;;;5054301;28;20943;-40
2022/06/04 12:31:54;;;;;;;7.80;6.80;;;26.60;39.40;;;;;;5054318;28;20651;-40
2022/06/04 12:34:30;;;;;;;7.93;7.00;;;26.70;39.20;;;;;;5053803;28;20415;-40
2022/06/04 12:36:56;;;;;;;7.97;7.27;;;26.80;39.50;;;;;;5054291;28;20412;-41
2022/06/04 12:39:24;;;;;;;7.37;6.73;;;26.80;39.60;;;;;;5054523;28;20431;-41
2022/06/04 12:42:01;;;;;;;10.97;7.20;;;26.90;39.80;;;;;;5053753;28;20455;-41
2022/06/04 12:44:33;;;;;;;8.87;7.97;;;26.90;39.40;;;;;;5053724;28;20456;-41
2022/06/04 12:47:21;;;;;;;9.03;7.43;;;26.90;39.10;;;;;;5053759;28;20420;-39
2022/06/04 12:49:58;;;;;;;9.50;7.60;;;26.90;39.20;;;;;;5053886;28;20797;-40
2022/06/04 12:52:45;;;;;;;9.53;8.33;;;27.00;39.60;;;;;;5053692;28;21044;-41
2022/06/04 12:55:28;;;;;;;8.67;7.70;;;27.00;39.60;;;;;;5053552;28;20416;-41
2022/06/04 12:57:57;;;;;;;8.87;8.07;;;27.00;39.60;;;;;;5053814;28;20388;-41
2022/06/04 13:00:33;;;;;;;7.83;7.13;;;26.90;39.20;;;;;;5053564;28;20410;-42
2022/06/04 13:03:07;;;;;;;7.80;7.00;;;26.90;39.10;;;;;;5053814;28;20446;-41
2022/06/04 13:06:00;;;;;;;7.80;7.10;;;26.90;38.90;;;;;;5053225;28;20433;-41
2022/06/04 13:08:28;;;;;;;8.00;7.30;;;26.90;38.80;;;;;;5053304;28;20417;-41
2022/06/04 13:11:02;;;;;;;7.90;7.20;;;26.90;38.70;;;;;;5053332;28;20850;-41
2022/06/04 13:13:36;;;;;;;8.00;7.30;;;26.90;38.90;;;;;;5053244;28;20400;-41
2022/06/04 13:16:13;;;;;;;6.77;6.17;;;26.90;38.80;;;;;;5053117;28;20936;-41
2022/06/04 13:18:41;;;;;;;8.73;7.93;;;26.80;38.70;;;;;;5053409;28;20396;-40
2022/06/04 13:21:16;;;;;;;8.10;7.30;;;26.70;38.80;;;;;;5052916;28;20514;-40
2022/06/04 13:23:59;;;;;;;8.83;7.93;;;26.60;38.60;;;;;;5053089;28;20403;-40
2022/06/04 13:26:44;;;;;;;8.63;7.73;;;26.50;38.60;;;;;;5052890;28;20403;-41
2022/06/04 13:29:31;;;;;;;8.37;7.57;;;26.40;38.60;;;;;;5053022;28;20768;-40